Time;durP1;ratioP1;P1;durP2;ratioP2;P2;SDS_P1;SDS_P2;PMS_P1;PMS_P2;Temp;Humidity;BMP_temperature;BMP_pressure;BME280_temperature;BME280_humidity;BME280_pressure;Samples;Min_cycle;Max_cycle;Signal;HPM_P1;HPM_P2
2022/07/21 00:00:26;;;;;;;13.57;10.73;;;25.10;78.60;;;-142.21;100.00;112049.66;5111657;28;20648;-75
2022/07/21 00:02:53;;;;;;;10.73;9.67;;;25.10;78.30;;;-142.21;100.00;112049.66;5111592;28;20192;-74
2022/07/21 00:05:21;;;;;;;11.43;10.10;;;25.10;78.30;;;-142.21;100.00;112049.66;5112088;28;20262;-74
2022/07/21 00:07:50;;;;;;;10.53;9.53;;;25.20;77.90;;;-142.21;100.00;112049.66;5095555;28;20197;-74
2022/07/21 00:10:18;;;;;;;10.17;9.03;;;25.10;77.70;;;-142.21;100.00;112049.66;5112060;28;20239;-74
2022/07/21 00:12:46;;;;;;;10.17;8.87;;;25.10;77.60;;;-142.21;100.00;112049.66;5111447;28;20200;-74
2022/07/21 00:15:15;;;;;;;9.97;8.97;;;25.00;77.70;;;-142.21;100.00;112049.66;5111723;28;20550;-74
2022/07/21 00:17:43;;;;;;;9.03;8.17;;;25.00;77.70;;;-142.21;100.00;112049.66;5111184;28;20294;-74
2022/07/21 00:20:13;;;;;;;10.17;8.30;;;24.90;77.70;;;-142.21;100.00;112049.66;5112281;28;20199;-74
2022/07/21 00:22:41;;;;;;;10.17;8.73;;;24.90;77.60;;;-142.21;100.00;112049.66;5111318;28;20196;-74
2022/07/21 00:25:12;;;;;;;8.03;7.23;;;24.90;77.00;;;-142.21;100.00;112049.66;5111467;28;20311;-74
2022/07/21 00:27:40;;;;;;;9.00;7.60;;;24.90;77.80;;;-142.21;100.00;112049.66;5114450;28;20664;-74
2022/07/21 00:30:10;;;;;;;9.40;8.27;;;24.90;77.60;;;-142.21;100.00;112049.66;5115915;28;20701;-74
2022/07/21 00:32:37;;;;;;;8.67;7.77;;;24.90;77.20;;;-142.21;100.00;112049.66;5115267;28;20544;-74
2022/07/21 00:35:06;;;;;;;8.57;7.70;;;25.00;77.10;;;-142.21;100.00;112049.66;5116248;28;20192;-74
2022/07/21 00:37:33;;;;;;;7.80;7.00;;;25.00;76.90;;;-142.21;100.00;112049.66;5116160;28;20206;-74
2022/07/21 00:40:01;;;;;;;8.27;7.30;;;25.00;76.70;;;-142.21;100.00;112049.66;5115883;28;20191;-74
2022/07/21 00:42:32;;;;;;;7.83;6.40;;;25.10;76.20;;;-142.21;100.00;112049.66;5115839;28;20238;-74
2022/07/21 00:45:01;;;;;;;8.83;7.47;;;25.10;76.10;;;-142.21;100.00;112049.66;5109671;28;20272;-74
2022/07/21 00:47:31;;;;;;;8.50;7.53;;;25.00;76.00;;;-142.21;100.00;112049.66;5116184;28;20199;-75
2022/07/21 00:50:02;;;;;;;8.87;6.73;;;25.10;76.30;;;-142.21;100.00;112049.66;5115459;28;20278;-74
2022/07/21 00:52:29;;;;;;;7.83;7.07;;;25.10;75.80;;;-142.21;100.00;112049.66;5115863;28;20297;-74
2022/07/21 00:54:56;;;;;;;9.80;7.50;;;25.20;75.70;;;-142.21;100.00;112049.66;5115012;28;20231;-74
2022/07/21 00:57:23;;;;;;;8.50;7.40;;;25.30;75.40;;;-142.21;100.00;112049.66;5115374;28;20287;-74
2022/07/21 00:59:52;;;;;;;8.30;7.07;;;25.20;75.40;;;-142.21;100.00;112049.66;5115071;28;20278;-74
2022/07/21 01:02:19;;;;;;;7.80;7.00;;;25.30;75.60;;;-142.21;100.00;112049.66;5115879;28;20238;-74
2022/07/21 01:04:46;;;;;;;8.77;7.87;;;25.30;75.20;;;-142.21;100.00;112049.66;5114857;28;20205;-74
2022/07/21 01:07:16;;;;;;;8.10;7.30;;;25.30;75.40;;;-142.21;100.00;112049.66;5097754;28;20220;-74
2022/07/21 01:09:43;;;;;;;7.40;6.47;;;25.20;75.40;;;-142.21;100.00;112049.66;5114885;28;20199;-74
2022/07/21 01:12:12;;;;;;;8.90;8.00;;;25.20;75.40;;;-142.21;100.00;112049.66;5114312;28;20231;-74
2022/07/21 01:14:39;;;;;;;8.00;7.20;;;25.10;75.60;;;-142.21;100.00;112049.66;5114799;28;20199;-74
2022/07/21 01:17:08;;;;;;;8.83;6.87;;;25.10;75.50;;;-142.21;100.00;112049.66;5114805;28;20195;-74
2022/07/21 01:19:35;;;;;;;8.73;7.43;;;25.10;75.60;;;-142.21;100.00;112049.66;5115272;28;20227;-74
2022/07/21 01:22:04;;;;;;;7.87;7.17;;;25.10;75.60;;;-142.21;100.00;112049.66;5115587;28;20200;-74
2022/07/21 01:24:31;;;;;;;8.00;7.20;;;25.20;75.50;;;-142.21;100.00;112049.66;5114866;28;20219;-74
2022/07/21 01:26:58;;;;;;;8.03;7.23;;;25.20;75.20;;;-142.21;100.00;112049.66;5114153;28;20232;-74
2022/07/21 01:29:26;;;;;;;9.20;7.37;;;25.10;75.50;;;-142.21;100.00;112049.66;5114911;28;20200;-74
2022/07/21 01:31:53;;;;;;;7.63;6.83;;;25.00;76.00;;;-142.21;100.00;112049.66;5113894;28;20192;-74
2022/07/21 01:34:20;;;;;;;9.43;8.30;;;24.80;76.50;;;-142.21;100.00;112049.66;5115320;28;20199;-74
2022/07/21 01:36:47;;;;;;;9.03;7.37;;;24.80;76.80;;;-142.21;100.00;112049.66;5114291;28;20217;-74
2022/07/21 01:42:02;;;;;;;8.17;7.33;;;24.50;78.50;;;-142.21;100.00;112049.66;5097788;28;20244;-74
2022/07/21 01:44:29;;;;;;;11.43;7.93;;;24.30;79.00;;;-142.21;100.00;112049.66;5114617;28;20203;-74
2022/07/21 01:46:57;;;;;;;9.60;7.50;;;24.10;79.40;;;-142.21;100.00;112049.66;5114370;28;20219;-73
2022/07/21 01:49:24;;;;;;;8.90;7.60;;;24.10;79.30;;;-142.21;100.00;112049.66;5115055;28;20231;-74
2022/07/21 01:51:52;;;;;;;7.90;7.03;;;24.10;79.80;;;-142.21;100.00;112049.66;5113810;28;20656;-74
2022/07/21 01:54:21;;;;;;;8.87;7.23;;;24.10;79.60;;;-142.21;100.00;112049.66;5114540;28;20203;-74
2022/07/21 01:56:48;;;;;;;8.00;7.20;;;24.10;80.20;;;-142.21;100.00;112049.66;5113993;28;20204;-74
2022/07/21 01:59:15;;;;;;;7.03;6.37;;;24.00;79.90;;;-142.21;100.00;112049.66;5114766;28;20207;-74
2022/07/21 02:01:43;;;;;;;7.40;6.57;;;24.00;79.80;;;-142.21;100.00;112049.66;5113552;28;20568;-74
2022/07/21 02:04:10;;;;;;;7.90;7.17;;;24.10;79.70;;;-142.21;100.00;112049.66;5114217;28;20202;-74
2022/07/21 02:06:37;;;;;;;8.23;7.30;;;24.20;79.40;;;-142.21;100.00;112049.66;5114472;28;20223;-74
2022/07/21 02:09:06;;;;;;;9.07;7.60;;;24.20;79.50;;;-142.21;100.00;112049.66;5114538;28;20554;-74
2022/07/21 02:11:36;;;;;;;10.57;8.03;;;24.10;79.70;;;-142.21;100.00;112049.66;5095896;28;20307;-74
2022/07/21 02:14:03;;;;;;;7.30;6.60;;;24.20;79.30;;;-142.21;100.00;112049.66;5113374;28;20282;-74
2022/07/21 02:16:30;;;;;;;9.27;8.00;;;24.20;79.30;;;-142.21;100.00;112049.66;5114130;28;20660;-74
2022/07/21 02:18:58;;;;;;;8.80;7.93;;;24.20;79.40;;;-142.21;100.00;112049.66;5113480;28;20279;-74
2022/07/21 02:21:26;;;;;;;9.63;7.43;;;24.20;79.40;;;-142.21;100.00;112049.66;5113642;28;20199;-74
2022/07/21 02:23:53;;;;;;;7.90;7.00;;;24.20;79.40;;;-142.21;100.00;112049.66;5112451;28;20199;-74
2022/07/21 02:26:20;;;;;;;8.40;7.60;;;24.20;79.10;;;-142.21;100.00;112049.66;5105748;28;20223;-72
2022/07/21 02:28:49;;;;;;;8.10;7.40;;;24.30;79.20;;;-142.21;100.00;112049.66;5113832;28;20201;-74
2022/07/21 02:31:16;;;;;;;8.43;7.63;;;24.30;79.70;;;-142.21;100.00;112049.66;5114526;28;20192;-74
2022/07/21 02:33:43;;;;;;;9.10;8.20;;;24.20;79.30;;;-142.21;100.00;112049.66;5113194;28;20232;-74
2022/07/21 02:36:11;;;;;;;8.47;7.57;;;24.20;79.60;;;-142.21;100.00;112049.66;5113402;28;20192;-74
2022/07/21 02:38:38;;;;;;;9.93;7.90;;;24.20;79.70;;;-142.21;100.00;112049.66;5113824;28;20655;-74
2022/07/21 02:41:06;;;;;;;9.03;8.13;;;24.20;79.50;;;-142.21;100.00;112049.66;5113692;28;20383;-74
2022/07/21 02:43:33;;;;;;;8.80;7.90;;;24.30;79.40;;;-142.21;100.00;112049.66;5113638;28;20199;-74
2022/07/21 02:46:01;;;;;;;9.43;8.37;;;24.30;79.30;;;-142.21;100.00;112049.66;5112975;28;20310;-74
2022/07/21 02:48:29;;;;;;;8.97;8.07;;;24.20;79.30;;;-142.21;100.00;112049.66;5113531;28;20206;-74
2022/07/21 02:50:56;;;;;;;9.87;8.87;;;24.30;79.50;;;-142.21;100.00;112049.66;5113027;28;20200;-74
2022/07/21 02:53:23;;;;;;;9.60;8.70;;;24.30;79.30;;;-142.21;100.00;112049.66;5113054;28;20203;-74
2022/07/21 02:55:52;;;;;;;11.00;8.30;;;24.40;79.20;;;-142.21;100.00;112049.66;5112788;28;20195;-74
2022/07/21 02:58:22;;;;;;;9.40;8.47;;;24.50;78.80;;;-142.21;100.00;112049.66;5113752;28;20210;-73
2022/07/21 03:00:52;;;;;;;9.90;8.90;;;24.40;78.50;;;-142.21;100.00;112049.66;5109660;28;20194;-74
2022/07/21 03:03:22;;;;;;;9.43;8.53;;;24.50;78.50;;;-142.21;100.00;112049.66;5112907;28;20201;-74
2022/07/21 03:05:49;;;;;;;9.90;8.90;;;24.60;79.00;;;-142.21;100.00;112049.66;5112573;28;20206;-74
2022/07/21 03:08:18;;;;;;;9.67;8.50;;;24.60;78.30;;;-142.21;100.00;112049.66;5112824;28;20203;-74
2022/07/21 03:10:46;;;;;;;10.40;8.27;;;24.60;78.50;;;-142.21;100.00;112049.66;5112005;28;20266;-74
2022/07/21 03:13:14;;;;;;;10.90;8.80;;;24.60;78.20;;;-142.21;100.00;112049.66;5113239;28;20242;-74
2022/07/21 03:15:41;;;;;;;9.53;8.63;;;24.60;77.90;;;-142.21;100.00;112049.66;5113029;28;20278;-74
2022/07/21 03:18:08;;;;;;;9.10;8.20;;;24.70;78.00;;;-142.21;100.00;112049.66;5112446;28;20200;-74
2022/07/21 03:20:40;;;;;;;9.97;8.97;;;24.70;78.10;;;-142.21;100.00;112049.66;5112884;28;20203;-74
2022/07/21 03:23:07;;;;;;;11.10;10.00;;;24.70;78.30;;;-142.21;100.00;112049.66;5111786;28;20191;-74
2022/07/21 03:25:35;;;;;;;10.93;9.83;;;24.60;78.10;;;-142.21;100.00;112049.66;5094672;28;20766;-74
2022/07/21 03:28:03;;;;;;;9.53;8.63;;;24.60;78.20;;;-142.21;100.00;112049.66;5112180;28;20695;-74
2022/07/21 03:30:30;;;;;;;11.33;8.83;;;24.50;78.20;;;-142.21;100.00;112049.66;5094957;28;20207;-73
2022/07/21 03:32:58;;;;;;;9.83;8.83;;;24.60;78.10;;;-142.21;100.00;112049.66;5112343;28;20208;-74
2022/07/21 03:35:26;;;;;;;9.57;8.67;;;24.70;78.30;;;-142.21;100.00;112049.66;5112786;28;20602;-73
2022/07/21 03:37:57;;;;;;;11.77;9.77;;;24.60;78.00;;;-142.21;100.00;112049.66;5111546;28;20192;-74
2022/07/21 03:40:28;;;;;;;10.50;9.50;;;24.70;78.30;;;-142.21;100.00;112049.66;5112406;28;20192;-74
2022/07/21 03:42:59;;;;;;;9.47;8.30;;;24.60;78.10;;;-142.21;100.00;112049.66;5112162;28;20188;-74
2022/07/21 03:45:29;;;;;;;10.20;9.20;;;24.60;77.80;;;-142.21;100.00;112049.66;5112369;28;20260;-73
2022/07/21 03:47:57;;;;;;;10.20;9.13;;;24.70;77.90;;;-142.21;100.00;112049.66;5111633;28;20613;-74
2022/07/21 03:50:24;;;;;;;11.17;9.93;;;24.70;77.90;;;-142.21;100.00;112049.66;5111245;28;20225;-74
2022/07/21 03:52:54;;;;;;;11.10;9.93;;;24.70;77.90;;;-142.21;100.00;112049.66;5111519;28;20195;-74
2022/07/21 03:55:21;;;;;;;10.97;9.87;;;24.60;78.80;;;-142.21;100.00;112049.66;5111957;28;20203;-74
2022/07/21 03:57:53;;;;;;;11.87;9.13;;;24.60;78.00;;;-142.21;100.00;112049.66;5111842;28;20227;-74
2022/07/21 04:00:23;;;;;;;10.40;9.40;;;24.60;78.20;;;-142.21;100.00;112049.66;5111656;28;20206;-74
2022/07/21 04:02:51;;;;;;;10.50;9.40;;;24.50;78.30;;;-142.21;100.00;112049.66;5110086;28;20198;-73
2022/07/21 04:05:20;;;;;;;10.77;9.47;;;24.50;78.70;;;-142.21;100.00;112049.66;5111465;28;20199;-73
2022/07/21 04:07:50;;;;;;;10.53;9.53;;;24.40;79.10;;;-142.21;100.00;112049.66;5110979;28;20314;-73
2022/07/21 04:10:21;;;;;;;12.30;11.03;;;24.30;79.30;;;-142.21;100.00;112049.66;5111812;28;20235;-73
2022/07/21 04:12:49;;;;;;;10.70;9.47;;;24.20;79.90;;;-142.21;100.00;112049.66;5111059;28;20191;-74
2022/07/21 04:15:18;;;;;;;10.73;9.53;;;24.10;80.00;;;-142.21;100.00;112049.66;5111843;28;20206;-74
2022/07/21 04:17:46;;;;;;;12.97;10.10;;;24.10;80.20;;;-142.21;100.00;112049.66;5111661;28;20290;-73
2022/07/21 04:20:14;;;;;;;11.60;10.23;;;24.10;80.20;;;-142.21;100.00;112049.66;5111861;28;20278;-73
2022/07/21 04:22:44;;;;;;;11.40;9.60;;;24.20;80.20;;;-142.21;100.00;112049.66;5112672;28;20192;-73
2022/07/21 04:25:13;;;;;;;12.83;10.50;;;24.20;80.20;;;-142.21;100.00;112049.66;5111460;28;20931;-73
2022/07/21 04:27:42;;;;;;;12.57;10.53;;;24.20;79.90;;;-142.21;100.00;112049.66;5111835;28;20218;-73
2022/07/21 04:30:15;;;;;;;11.10;9.77;;;24.30;80.10;;;-142.21;100.00;112049.66;5111480;28;20293;-74
2022/07/21 04:32:42;;;;;;;10.93;9.90;;;24.30;80.00;;;-142.21;100.00;112049.66;5111927;28;20196;-73
2022/07/21 04:35:10;;;;;;;11.77;10.17;;;24.30;79.70;;;-142.21;100.00;112049.66;5110882;28;20290;-73
2022/07/21 04:37:38;;;;;;;11.60;10.40;;;24.40;80.00;;;-142.21;100.00;112049.66;5111528;28;20187;-74
2022/07/21 04:40:10;;;;;;;11.50;9.73;;;24.30;79.90;;;-142.21;100.00;112049.66;5075501;28;20213;-74
2022/07/21 04:42:38;;;;;;;10.47;9.37;;;24.30;80.00;;;-142.21;100.00;112049.66;5111807;28;20641;-74
2022/07/21 04:45:10;;;;;;;11.50;10.07;;;24.40;79.80;;;-142.21;100.00;112049.66;5110912;28;20563;-74
2022/07/21 04:47:44;;;;;;;10.80;9.70;;;24.40;79.70;;;-142.21;100.00;112049.66;5109923;28;20214;-74
2022/07/21 04:50:11;;;;;;;11.30;10.07;;;24.50;79.50;;;-142.21;100.00;112049.66;5111353;28;20188;-74
2022/07/21 04:52:39;;;;;;;10.77;9.67;;;24.50;78.90;;;-142.21;100.00;112049.66;5111575;28;20211;-74
2022/07/21 05:32:35;;;;;;;11.20;10.03;;;24.40;79.50;;;-142.21;100.00;112049.66;5107055;28;20242;-77
2022/07/21 05:35:08;;;;;;;12.30;10.53;;;24.40;79.50;;;-142.21;100.00;112049.66;5096978;28;20279;-78
2022/07/21 05:37:35;;;;;;;11.53;9.57;;;24.40;78.90;;;-142.21;100.00;112049.66;5116089;28;20188;-79
2022/07/21 05:40:07;;;;;;;11.17;9.73;;;24.40;78.60;;;-142.21;100.00;112049.66;5097062;28;20326;-77
2022/07/21 05:42:39;;;;;;;10.87;9.77;;;24.50;78.50;;;-142.21;100.00;112049.66;5098672;28;20278;-78
2022/07/21 05:45:08;;;;;;;11.63;10.53;;;24.60;77.80;;;-142.21;100.00;112049.66;5115340;28;20198;-79
2022/07/21 05:47:37;;;;;;;10.93;8.80;;;24.70;77.50;;;-142.21;100.00;112049.66;5097404;28;20234;-79
2022/07/21 05:50:06;;;;;;;11.43;10.33;;;24.80;77.00;;;-142.21;100.00;112049.66;5115975;28;20239;-76
2022/07/21 05:52:33;;;;;;;11.10;9.97;;;24.80;76.60;;;-142.21;100.00;112049.66;5115548;28;20660;-80
2022/07/21 05:55:01;;;;;;;10.70;9.63;;;24.70;76.90;;;-142.21;100.00;112049.66;5115169;28;20287;-77
2022/07/21 05:57:28;;;;;;;11.20;10.13;;;24.80;76.60;;;-142.21;100.00;112049.66;5115547;28;20199;-78
2022/07/21 05:59:56;;;;;;;9.73;8.73;;;24.80;75.90;;;-142.21;100.00;112049.66;5075913;28;20214;-78
2022/07/21 06:02:23;;;;;;;10.37;9.10;;;24.80;75.70;;;-142.21;100.00;112049.66;5104495;28;20200;-77
2022/07/21 06:04:52;;;;;;;10.90;9.80;;;24.80;75.60;;;-142.21;100.00;112049.66;5114431;28;20652;-78
2022/07/21 06:07:19;;;;;;;12.37;9.83;;;24.90;75.40;;;-142.21;100.00;112049.66;5115218;28;20234;-76
2022/07/21 06:09:46;;;;;;;11.17;10.07;;;25.00;75.20;;;-142.21;100.00;112049.66;5114892;28;20242;-78
2022/07/21 06:12:13;;;;;;;11.63;10.43;;;25.00;74.50;;;-142.21;100.00;112049.66;5115079;28;20226;-77
2022/07/21 06:14:41;;;;;;;10.67;9.57;;;25.10;74.50;;;-142.21;100.00;112049.66;5112684;28;20199;-78
2022/07/21 06:17:08;;;;;;;11.37;10.00;;;25.10;74.50;;;-142.21;100.00;112049.66;5115431;28;20199;-77
2022/07/21 06:19:35;;;;;;;11.40;9.30;;;25.20;74.40;;;-142.21;100.00;112049.66;5114862;28;20231;-80
2022/07/21 06:22:04;;;;;;;9.90;8.87;;;25.20;74.40;;;-142.21;100.00;112049.66;5114505;28;20200;-80
2022/07/21 06:24:31;;;;;;;10.10;9.00;;;25.30;75.10;;;-142.21;100.00;112049.66;5114586;28;20231;-79
2022/07/21 06:26:59;;;;;;;13.40;9.77;;;25.30;73.80;;;-142.21;100.00;112049.66;5113920;28;20259;-79
2022/07/21 06:29:27;;;;;;;10.20;9.10;;;25.30;73.80;;;-142.21;100.00;112049.66;5114586;28;20302;-79
2022/07/21 06:31:54;;;;;;;10.03;9.00;;;25.30;73.90;;;-142.21;100.00;112049.66;5113719;28;20656;-79
2022/07/21 06:34:21;;;;;;;10.27;8.77;;;25.40;74.20;;;-142.21;100.00;112049.66;5114766;28;20213;-77
2022/07/21 06:36:49;;;;;;;10.13;9.10;;;25.40;73.90;;;-142.21;100.00;112049.66;5113870;28;20227;-80
2022/07/21 06:39:17;;;;;;;10.33;9.00;;;25.50;74.20;;;-142.21;100.00;112049.66;5114493;28;20290;-80
2022/07/21 06:41:44;;;;;;;10.57;9.40;;;25.50;73.80;;;-142.21;100.00;112049.66;5113707;28;20663;-79
2022/07/21 06:44:13;;;;;;;9.87;8.87;;;25.60;74.10;;;-142.21;99.80;112049.66;5114433;28;20370;-78
2022/07/21 06:46:40;;;;;;;10.43;8.67;;;25.60;73.50;;;-142.21;99.84;112049.66;5114558;28;20239;-79
2022/07/21 06:49:07;;;;;;;10.27;9.10;;;25.60;73.40;;;-142.21;98.84;112049.66;5114177;28;20207;-76
2022/07/21 06:51:34;;;;;;;9.70;8.27;;;25.70;72.90;;;-142.21;97.74;112049.66;5114089;28;20204;-79
2022/07/21 06:54:01;;;;;;;10.60;8.47;;;25.80;72.30;;;-142.21;97.55;112049.66;5094991;28;20206;-77
2022/07/21 06:56:30;;;;;;;9.50;7.10;;;25.90;72.30;;;-142.21;97.60;112049.66;5114407;28;20621;-80
2022/07/21 06:58:57;;;;;;;8.43;7.50;;;25.90;72.00;;;-142.21;95.27;112049.66;5092962;28;20688;-77
2022/07/21 07:01:27;;;;;;;7.53;6.83;;;25.90;70.60;;;-142.21;94.17;112049.66;5093980;28;20295;-78
2022/07/21 07:03:54;;;;;;;7.53;6.73;;;25.90;69.90;;;-142.21;92.97;112049.66;5093478;28;20204;-79
2022/07/21 07:06:23;;;;;;;6.83;6.23;;;25.80;69.50;;;-142.21;92.28;112049.66;5093676;28;20291;-77
2022/07/21 07:08:51;;;;;;;6.90;6.20;;;25.90;69.10;;;-142.21;92.98;112049.66;5093113;28;20228;-78
2022/07/21 07:11:18;;;;;;;7.13;6.17;;;25.90;68.80;;;-142.21;93.67;112049.66;5093996;28;20231;-78
2022/07/21 07:13:46;;;;;;;7.80;6.30;;;25.90;69.20;;;-142.21;93.91;112049.66;5092735;28;20290;-78
2022/07/21 07:16:14;;;;;;;7.20;6.53;;;25.90;69.10;;;-142.21;94.00;112049.66;5093372;28;20209;-77
2022/07/21 07:18:41;;;;;;;6.93;6.27;;;25.90;69.30;;;-142.21;94.32;112049.66;5111659;28;20202;-77
2022/07/21 07:21:08;;;;;;;7.50;6.70;;;25.90;69.20;;;-142.21;93.11;112049.66;5113144;28;20299;-79
2022/07/21 07:23:36;;;;;;;7.40;6.13;;;25.80;68.60;;;-142.21;93.05;112049.66;5113714;28;20238;-78
2022/07/21 07:26:03;;;;;;;9.20;6.83;;;25.70;69.10;;;-142.21;93.25;112049.66;5112969;28;20243;-79
2022/07/21 07:28:30;;;;;;;8.80;7.07;;;25.60;69.00;;;-142.21;94.00;112049.66;5113642;28;20259;-80
2022/07/21 07:30:58;;;;;;;6.90;6.30;;;25.60;69.30;;;-142.21;94.09;112049.66;5113057;28;20290;-79
2022/07/21 07:33:27;;;;;;;7.43;6.73;;;25.60;69.60;;;-142.21;93.71;112049.66;5113767;28;20393;-78
2022/07/21 07:35:56;;;;;;;7.20;6.50;;;25.80;69.30;;;-142.21;92.28;112049.66;5112223;28;20196;-77
2022/07/21 07:38:23;;;;;;;6.70;6.03;;;26.00;68.30;;;-142.21;92.04;112049.66;5113327;28;20192;-76
2022/07/21 07:40:50;;;;;;;8.00;6.83;;;26.10;68.00;;;-142.21;91.20;112049.66;5112771;28;20295;-78
2022/07/21 07:43:17;;;;;;;7.40;6.50;;;26.10;67.20;;;-142.21;91.13;112049.66;5113032;28;20683;-76
2022/07/21 07:45:45;;;;;;;6.90;6.20;;;26.20;67.40;;;-142.21;90.30;112049.66;5113716;28;20290;-78
2022/07/21 07:48:13;;;;;;;7.60;6.43;;;26.30;66.90;;;-142.21;89.44;112049.66;5113585;28;20310;-77
2022/07/21 07:50:41;;;;;;;8.70;6.77;;;26.30;66.20;;;-142.21;89.50;112049.66;5113184;28;20295;-78
2022/07/21 07:53:08;;;;;;;6.90;6.30;;;26.30;66.00;;;-142.21;88.12;112049.66;5112866;28;20256;-77
2022/07/21 07:55:36;;;;;;;6.67;5.97;;;26.30;65.40;;;-142.21;88.93;112049.66;5112962;28;20241;-79
2022/07/21 07:58:03;;;;;;;6.83;6.20;;;26.30;65.50;;;-142.21;88.90;112049.66;5112053;28;20287;-77
2022/07/21 08:00:30;;;;;;;6.30;5.73;;;26.40;66.40;;;-142.21;88.34;112049.66;5113329;28;20235;-79
2022/07/21 08:02:58;;;;;;;6.67;5.97;;;26.50;65.80;;;-142.21;88.01;112049.66;5112868;28;20648;-81
2022/07/21 08:05:27;;;;;;;7.60;6.37;;;26.60;65.60;;;-142.21;88.12;112049.66;5113217;28;20622;-76
2022/07/21 08:07:54;;;;;;;6.97;6.23;;;26.60;64.60;;;-142.21;86.64;112049.66;5094466;28;20231;-80
2022/07/21 08:10:21;;;;;;;8.07;6.00;;;26.70;64.10;;;-142.21;86.35;112049.66;5112569;28;20239;-79
2022/07/21 08:12:48;;;;;;;7.00;6.30;;;26.70;63.80;;;-142.21;84.91;112049.66;5112583;28;20235;-80
2022/07/21 08:15:15;;;;;;;7.00;6.30;;;26.80;63.30;;;-142.21;84.87;112049.66;5113274;28;20199;-80
2022/07/21 08:17:43;;;;;;;7.03;6.20;;;26.80;63.40;;;-142.21;83.96;112049.66;5112859;28;20200;-78
2022/07/21 08:20:12;;;;;;;7.03;6.33;;;26.80;62.90;;;-142.21;83.91;112049.66;5112541;28;20290;-79
2022/07/21 08:22:40;;;;;;;7.07;6.37;;;26.90;62.70;;;-142.21;84.40;112049.66;5077257;28;20291;-78
2022/07/21 08:25:08;;;;;;;6.93;5.60;;;26.90;62.40;;;-142.21;82.09;112049.66;5112180;28;20322;-79
2022/07/21 08:27:35;;;;;;;6.37;5.70;;;27.00;61.80;;;-142.21;81.56;112049.66;5112239;28;20226;-77
2022/07/21 08:30:03;;;;;;;6.80;6.07;;;27.00;61.50;;;-142.21;81.07;112049.66;5112170;28;20704;-79
2022/07/21 08:32:30;;;;;;;6.70;6.10;;;27.00;60.80;;;-142.21;81.14;112049.66;5113063;28;20603;-79
2022/07/21 08:34:57;;;;;;;6.90;6.20;;;26.90;60.70;;;-142.21;81.42;112049.66;5110963;28;20551;-80
2022/07/21 08:37:24;;;;;;;6.53;5.90;;;26.90;61.10;;;-142.21;81.75;112049.66;5112706;28;20214;-79
2022/07/21 08:39:53;;;;;;;7.23;5.87;;;26.90;61.20;;;-142.21;81.39;112049.66;5112521;28;20242;-80
2022/07/21 08:42:20;;;;;;;6.20;4.97;;;26.90;61.00;;;-142.21;80.54;112049.66;5112959;28;20272;-80
2022/07/21 08:44:47;;;;;;;6.60;6.00;;;26.80;60.50;;;-142.21;80.36;112049.66;5112566;28;20250;-80
2022/07/21 08:47:14;;;;;;;6.37;5.63;;;26.90;60.50;;;-142.21;80.26;112049.66;5113543;28;20235;-77
2022/07/21 08:49:42;;;;;;;7.13;6.40;;;26.90;60.30;;;-142.21;80.52;112049.66;5117304;28;20603;-77
2022/07/21 08:52:09;;;;;;;7.07;6.03;;;26.90;60.60;;;-142.21;81.07;112049.66;5116490;28;20294;-80
2022/07/21 08:54:37;;;;;;;9.03;5.97;;;26.90;60.70;;;-142.21;82.18;112049.66;5116993;28;20204;-80
2022/07/21 08:57:05;;;;;;;5.97;5.47;;;26.90;61.30;;;-142.21;80.14;112049.66;5116147;28;20290;-77
2022/07/21 08:59:32;;;;;;;6.70;6.00;;;27.00;60.60;;;-142.21;77.59;112049.66;5116749;28;20313;-79
2022/07/21 09:02:00;;;;;;;7.33;5.80;;;27.10;59.60;;;-142.21;78.62;112049.66;5116047;28;20291;-79
2022/07/21 09:04:30;;;;;;;6.57;5.97;;;27.20;59.60;;;-142.21;79.75;112049.66;5116510;28;20296;-79
2022/07/21 09:07:00;;;;;;;7.77;6.27;;;27.30;59.80;;;-142.21;79.86;112049.66;5116048;28;20243;-77
2022/07/21 09:09:30;;;;;;;6.00;5.27;;;27.50;59.90;;;-142.21;79.07;112049.66;5116048;28;20215;-79
2022/07/21 09:11:59;;;;;;;6.17;5.57;;;27.70;60.00;;;-142.21;76.26;112049.66;5115925;28;20221;-79
2022/07/21 09:14:32;;;;;;;7.20;6.50;;;27.80;59.10;;;-142.21;75.72;112049.66;5116777;28;20210;-80
2022/07/21 09:17:01;;;;;;;7.33;6.30;;;27.90;58.90;;;-142.21;74.69;112049.66;5115974;28;20192;-79
2022/07/21 09:19:33;;;;;;;5.87;5.33;;;27.90;58.60;;;-142.21;74.01;112049.66;5116163;28;20288;-79
2022/07/21 09:22:03;;;;;;;7.13;6.50;;;27.90;58.90;;;-142.21;74.79;112049.66;5115538;28;20182;-80
2022/07/21 09:24:37;;;;;;;6.20;5.43;;;27.90;58.20;;;-142.21;74.05;112049.66;5116415;28;20216;-79
2022/07/21 09:27:17;;;;;;;5.50;5.00;;;27.80;58.40;;;-142.21;66.81;112049.66;5098815;28;20189;-80
2022/07/21 09:29:49;;;;;;;5.83;5.00;;;27.80;56.10;;;-142.21;68.56;112049.66;5115753;28;20236;-81
2022/07/21 09:32:24;;;;;;;6.47;5.87;;;27.70;56.70;;;-142.21;69.75;112049.66;5116269;28;20222;-79
2022/07/21 09:34:55;;;;;;;5.67;5.10;;;27.70;57.20;;;-142.21;67.04;112049.66;5115826;28;20275;-78
2022/07/21 09:37:24;;;;;;;7.30;5.93;;;27.60;56.60;;;-142.21;69.01;112049.66;5097989;28;20227;-78
2022/07/21 09:39:54;;;;;;;5.70;5.20;;;27.70;57.30;;;-142.21;68.13;112049.66;5115266;28;20208;-77
2022/07/21 09:42:26;;;;;;;5.97;5.37;;;27.90;57.10;;;-142.21;67.05;112049.66;5116041;28;20205;-80
2022/07/21 09:44:58;;;;;;;6.27;4.50;;;28.10;56.50;;;-142.21;61.08;112049.66;5115174;28;20642;-78
2022/07/21 09:47:28;;;;;;;5.03;4.63;;;28.10;54.80;;;-142.21;63.11;112049.66;5115868;28;20193;-79
2022/07/21 09:49:58;;;;;;;6.50;4.80;;;28.20;55.40;;;-142.21;62.56;112049.66;5115177;28;20308;-79
2022/07/21 09:52:30;;;;;;;5.87;5.00;;;28.30;55.20;;;-142.21;58.10;112049.66;5114240;28;20266;-78
2022/07/21 09:55:00;;;;;;;5.13;4.63;;;28.40;53.50;;;-142.21;60.34;112049.66;5115364;28;20597;-79
2022/07/21 09:57:29;;;;;;;5.30;4.80;;;28.30;54.50;;;-142.21;61.02;112049.66;5115574;28;20273;-80
2022/07/21 09:59:58;;;;;;;5.53;5.00;;;28.30;54.50;;;-142.21;59.71;112049.66;5114074;28;20290;-79
2022/07/21 10:02:28;;;;;;;5.90;5.30;;;28.40;54.30;;;-142.21;61.61;112049.66;5115724;28;20222;-75
2022/07/21 10:05:00;;;;;;;5.50;5.00;;;28.50;54.80;;;-142.21;64.53;112049.66;5114730;28;20678;-78
2022/07/21 10:07:28;;;;;;;6.03;5.53;;;28.70;55.40;;;-142.21;60.64;112049.66;5114877;28;20278;-76
2022/07/21 10:09:57;;;;;;;4.87;4.47;;;29.00;54.60;;;-142.21;56.13;112049.66;5097009;28;20315;-79
2022/07/21 10:12:27;;;;;;;5.97;4.37;;;29.10;53.20;;;-142.21;53.63;112049.66;5115329;28;20296;-78
2022/07/21 10:14:55;;;;;;;4.00;3.60;;;29.00;52.00;;;-142.21;50.49;112049.66;5114850;28;20287;-76
2022/07/21 10:17:26;;;;;;;3.93;3.63;;;28.90;51.00;;;-142.21;51.22;112049.66;5115288;28;20285;-79
2022/07/21 10:20:06;;;;;;;4.73;3.17;;;29.00;51.50;;;-142.21;45.92;112049.66;5114570;28;20181;-80
2022/07/21 10:22:57;;;;;;;3.37;3.07;;;29.10;49.00;;;-142.21;46.09;112049.66;5115146;28;20190;-80
2022/07/21 10:25:26;;;;;;;5.10;3.13;;;29.00;48.80;;;-142.21;46.99;112049.66;5097882;28;20197;-79
2022/07/21 10:28:18;;;;;;;3.23;2.97;;;29.10;50.00;;;-142.21;44.57;112049.66;5114869;28;20637;-79
2022/07/21 10:30:47;;;;;;;7.57;3.30;;;29.30;48.00;;;-142.21;43.43;112049.66;5114949;28;20246;-79
2022/07/21 10:33:18;;;;;;;3.50;3.20;;;29.30;47.60;;;-142.21;43.19;112049.66;5114444;28;20293;-80
2022/07/21 10:35:48;;;;;;;3.43;3.13;;;29.30;47.10;;;-142.21;43.73;112049.66;5114808;28;20194;-76
2022/07/21 10:38:29;;;;;;;3.13;2.83;;;29.30;48.20;;;-142.21;42.61;112049.66;5114347;28;20198;-78